Observation data for Seminole on 10/14/2019      Previous  Date       Current Mesonet Observations  Soil Data  Daily Summary Page  Observations in Plain Language
KSM1 140500Z 20009KT 19/02 A30 RMK A01 T01920023  RH  033%=      5-min Rain = 0
KSM1 140505Z 20009KT 19/02 A30 RMK A01 T01930024  RH  033%=      5-min Rain = 0
KSM1 140510Z 20008KT 19/03 A30 RMK A01 T01910026  RH  034%=      5-min Rain = 0
KSM1 140515Z 20008KT 19/03 A30 RMK A01 T01910029  RH  035%=      5-min Rain = 0
KSM1 140520Z 20009KT 19/03 A30 RMK A01 T01910031  RH  035%=      5-min Rain = 0
KSM1 140525Z 20009KT 19/03 A30 RMK A01 T01920034  RH  036%=      5-min Rain = 0
KSM1 140530Z 20009G14KT 19/04 A30 RMK A01 T01920039  RH  037%=      5-min Rain = 0
KSM1 140535Z 20009KT 19/04 A30 RMK A01 T01930042  RH  038%=      5-min Rain = 0
KSM1 140540Z 19008KT 19/04 A30 RMK A01 T01910043  RH  038%=      5-min Rain = 0
KSM1 140545Z 20008KT 19/05 A30 RMK A01 T01900045  RH  039%=      5-min Rain = 0
KSM1 140550Z 21010KT 19/05 A30 RMK A01 T01920048  RH  039%=      5-min Rain = 0
KSM1 140555Z 20009KT 19/05 A30 RMK A01 T01940049  RH  039%=      5-min Rain = 0
KSM1 140600Z 20009KT 19/05 A2999 RMK A01 T01930051  RH  040%=      5-min Rain = 0
KSM1 140605Z 20010KT 19/05 A2999 RMK A01 T01930052  RH  040%=      5-min Rain = 0
KSM1 140610Z 20009KT 19/05 A2999 RMK A01 T01940053  RH  041%=      5-min Rain = 0
KSM1 140615Z 20009KT 19/06 A2999 RMK A01 T01930055  RH  041%=      5-min Rain = 0
KSM1 140620Z 21010KT 20/06 A30 RMK A01 T01950055  RH  041%=      5-min Rain = 0
KSM1 140625Z 21011KT 20/06 A30 RMK A01 T01960056  RH  041%=      5-min Rain = 0
KSM1 140630Z 21011KT 19/06 A30 RMK A01 T01940057  RH  042%=      5-min Rain = 0
KSM1 140635Z 21008KT 19/06 A30 RMK A01 T01910058  RH  043%=      5-min Rain = 0
KSM1 140640Z 22007KT 19/06 A2999 RMK A01 T01870059  RH  044%=      5-min Rain = 0
KSM1 140645Z 21007KT 19/06 A2999 RMK A01 T01850059  RH  045%=      5-min Rain = 0
KSM1 140650Z 21009KT 19/06 A2999 RMK A01 T01870059  RH  044%=      5-min Rain = 0
KSM1 140655Z 21007KT 19/06 A2999 RMK A01 T01870060  RH  044%=      5-min Rain = 0
KSM1 140700Z 22006KT 18/06 A30 RMK A01 T01840060  RH  045%=      5-min Rain = 0
KSM1 140705Z 22006KT 18/06 A30 RMK A01 T01830060  RH  045%=      5-min Rain = 0
KSM1 140710Z 22006KT 18/06 A30 RMK A01 T01830060  RH  046%=      5-min Rain = 0
KSM1 140715Z 23007KT 18/06 A2999 RMK A01 T01830060  RH  045%=      5-min Rain = 0
KSM1 140720Z 23006KT 18/06 A2999 RMK A01 T01840059  RH  045%=      5-min Rain = 0
KSM1 140725Z 22005KT 18/06 A30 RMK A01 T01830060  RH  045%=      5-min Rain = 0
KSM1 140730Z 22005KT 18/06 A2999 RMK A01 T01810060  RH  046%=      5-min Rain = 0
KSM1 140735Z 21004KT 18/06 A2999 RMK A01 T01780060  RH  047%=      5-min Rain = 0
KSM1 140740Z 23004KT 18/06 A2999 RMK A01 T01760060  RH  047%=      5-min Rain = 0
KSM1 140745Z 23004KT 18/06 A2999 RMK A01 T01760060  RH  048%=      5-min Rain = 0
KSM1 140750Z 23004KT 18/06 A2999 RMK A01 T01750060  RH  048%=      5-min Rain = 0
KSM1 140755Z 23005KT 17/06 A2999 RMK A01 T01730061  RH  049%=      5-min Rain = 0
KSM1 140800Z 24005KT 17/06 A2999 RMK A01 T01710061  RH  049%=      5-min Rain = 0
KSM1 140805Z 24007KT 17/06 A2999 RMK A01 T01710061  RH  049%=      5-min Rain = 0
KSM1 140810Z 24007KT 17/06 A2999 RMK A01 T01700061  RH  050%=      5-min Rain = 0
KSM1 140815Z 24006KT 17/06 A2999 RMK A01 T01690062  RH  050%=      5-min Rain = 0
KSM1 140820Z 24006KT 17/06 A2999 RMK A01 T01670062  RH  051%=      5-min Rain = 0
KSM1 140825Z 23006KT 17/06 A2999 RMK A01 T01660062  RH  052%=      5-min Rain = 0
KSM1 140830Z 23006KT 17/06 A2999 RMK A01 T01660063  RH  052%=      5-min Rain = 0
KSM1 140835Z 23006KT 17/06 A2999 RMK A01 T01650063  RH  052%=      5-min Rain = 0
KSM1 140840Z 23006KT 17/06 A2999 RMK A01 T01660063  RH  052%=      5-min Rain = 0
KSM1 140845Z 24008KT 17/06 A2999 RMK A01 T01660064  RH  052%=      5-min Rain = 0
KSM1 140850Z 24007KT 17/06 A2998 RMK A01 T01650064  RH  052%=      5-min Rain = 0
KSM1 140855Z 24006KT 16/06 A2998 RMK A01 T01630064  RH  053%=      5-min Rain = 0
KSM1 140900Z 25006KT 16/06 A2998 RMK A01 T01620064  RH  054%=      5-min Rain = 0
KSM1 140905Z 26006KT 16/06 A2998 RMK A01 T01620064  RH  053%=      5-min Rain = 0
KSM1 140910Z 25006KT 16/06 A2998 RMK A01 T01620064  RH  053%=      5-min Rain = 0
KSM1 140915Z 25006KT 16/06 A2998 RMK A01 T01590064  RH  054%=      5-min Rain = 0
KSM1 140920Z 25006KT 16/06 A2998 RMK A01 T01590064  RH  055%=      5-min Rain = 0
KSM1 140925Z 25006KT 16/07 A2997 RMK A01 T01570065  RH  056%=      5-min Rain = 0
KSM1 140930Z 25006KT 16/07 A2997 RMK A01 T01570065  RH  056%=      5-min Rain = 0
KSM1 140935Z 25006KT 16/07 A2998 RMK A01 T01570065  RH  056%=      5-min Rain = 0
KSM1 140940Z 25006KT 16/07 A2998 RMK A01 T01560065  RH  056%=      5-min Rain = 0
KSM1 140945Z 25006KT 16/07 A2997 RMK A01 T01570065  RH  056%=      5-min Rain = 0
KSM1 140950Z 25006KT 16/07 A2997 RMK A01 T01570065  RH  056%=      5-min Rain = 0
KSM1 140955Z 26006KT 16/07 A2997 RMK A01 T01570065  RH  056%=      5-min Rain = 0
KSM1 141000Z 24007KT 16/07 A2997 RMK A01 T01580066  RH  056%=      5-min Rain = 0
KSM1 141005Z 24006KT 16/07 A2997 RMK A01 T01570066  RH  056%=      5-min Rain = 0
KSM1 141010Z 23005KT 16/07 A2997 RMK A01 T01580066  RH  056%=      5-min Rain = 0
KSM1 141015Z 22005KT 16/07 A2997 RMK A01 T01590067  RH  056%=      5-min Rain = 0
KSM1 141020Z 23005KT 16/07 A2997 RMK A01 T01600068  RH  056%=      5-min Rain = 0
KSM1 141025Z 24005KT 16/07 A2997 RMK A01 T01610068  RH  055%=      5-min Rain = 0
KSM1 141030Z 25005KT 16/07 A2997 RMK A01 T01600068  RH  056%=      5-min Rain = 0
KSM1 141035Z 26004KT 16/07 A2998 RMK A01 T01590068  RH  056%=      5-min Rain = 0
KSM1 141040Z 26006KT 16/07 A2998 RMK A01 T01580069  RH  057%=      5-min Rain = 0
KSM1 141045Z 26006KT 16/07 A2998 RMK A01 T01580069  RH  057%=      5-min Rain = 0
KSM1 141050Z 26007KT 16/07 A2998 RMK A01 T01590069  RH  057%=      5-min Rain = 0
KSM1 141055Z 26007KT 16/07 A2998 RMK A01 T01580069  RH  057%=      5-min Rain = 0
KSM1 141100Z 26006KT 16/07 A2998 RMK A01 T01580069  RH  057%=      5-min Rain = 0
KSM1 141105Z 27006KT 16/07 A2998 RMK A01 T01570069  RH  057%=      5-min Rain = 0
KSM1 141110Z 27006KT 15/07 A2998 RMK A01 T01520069  RH  059%=      5-min Rain = 0
KSM1 141115Z 28006KT 15/07 A2998 RMK A01 T01480070  RH  061%=      5-min Rain = 0
KSM1 141120Z 28005KT 14/07 A2998 RMK A01 T01440070  RH  063%=      5-min Rain = 0
KSM1 141125Z 26005KT 15/07 A2998 RMK A01 T01450070  RH  062%=      5-min Rain = 0
KSM1 141130Z 28006KT 15/07 A2998 RMK A01 T01470070  RH  061%=      5-min Rain = 0
KSM1 141135Z 28005KT 14/07 A2998 RMK A01 T01440070  RH  063%=      5-min Rain = 0
KSM1 141140Z 29004KT 14/07 A2999 RMK A01 T01410070  RH  064%=      5-min Rain = 0
KSM1 141145Z 26002KT 14/07 A2999 RMK A01 T01390070  RH  065%=      5-min Rain = 0
KSM1 141150Z 25003KT 14/07 A2999 RMK A01 T01400070  RH  065%=      5-min Rain = 0
KSM1 141155Z 25002KT 14/07 A2999 RMK A01 T01390070  RH  065%=      5-min Rain = 0
KSM1 141200Z 24002KT 14/07 A2999 RMK A01 T01380070  RH  065%=      5-min Rain = 0
KSM1 141205Z 25003KT 14/07 A2999 RMK A01 T01370070  RH  065%=      5-min Rain = 0
KSM1 141210Z 24003KT 14/07 A2999 RMK A01 T01370070  RH  066%=      5-min Rain = 0
KSM1 141215Z 24005KT 14/07 A2999 RMK A01 T01350071  RH  067%=      5-min Rain = 0
KSM1 141220Z 23004KT 14/07 A30 RMK A01 T01360071  RH  066%=      5-min Rain = 0
KSM1 141225Z 22002KT 14/07 A30 RMK A01 T01360071  RH  067%=      5-min Rain = 0
KSM1 141230Z 26002KT 14/07 A30 RMK A01 T01350071  RH  067%=      5-min Rain = 0
KSM1 141235Z 28004KT 14/07 A3001 RMK A01 T01370072  RH  067%=      5-min Rain = 0
KSM1 141240Z 28003KT 14/07 A3001 RMK A01 T01370072  RH  066%=      5-min Rain = 0
KSM1 141245Z 27004KT 14/07 A30 RMK A01 T01350072  RH  067%=      5-min Rain = 0
KSM1 141250Z 29004KT 13/07 A30 RMK A01 T01340071  RH  068%=      5-min Rain = 0
KSM1 141255Z 28004KT 13/07 A30 RMK A01 T01320071  RH  069%=      5-min Rain = 0
KSM1 141300Z 27004KT 13/07 A30 RMK A01 T01340073  RH  068%=      5-min Rain = 0
KSM1 141305Z 28004KT 14/07 A30 RMK A01 T01360072  RH  067%=      5-min Rain = 0
KSM1 141310Z 28004KT 13/07 A30 RMK A01 T01340073  RH  068%=      5-min Rain = 0
KSM1 141315Z 24004KT 13/07 A30 RMK A01 T01340074  RH  068%=      5-min Rain = 0
KSM1 141320Z 25003KT 14/08 A30 RMK A01 T01350075  RH  068%=      5-min Rain = 0
KSM1 141325Z 26003KT 14/08 A30 RMK A01 T01370075  RH  068%=      5-min Rain = 0
KSM1 141330Z 24003KT 14/08 A30 RMK A01 T01400075  RH  067%=      5-min Rain = 0
KSM1 141335Z 24004KT 14/08 A3001 RMK A01 T01410076  RH  066%=      5-min Rain = 0
KSM1 141340Z 25005KT 14/08 A3001 RMK A01 T01430077  RH  066%=      5-min Rain = 0
KSM1 141345Z 24005KT 15/08 A3001 RMK A01 T01450078  RH  066%=      5-min Rain = 0
KSM1 141350Z 25004KT 15/08 A3001 RMK A01 T01480078  RH  065%=      5-min Rain = 0
KSM1 141355Z 26003KT 15/08 A3001 RMK A01 T01510079  RH  064%=      5-min Rain = 0
KSM1 141400Z 24003KT 15/08 A3002 RMK A01 T01520080  RH  064%=      5-min Rain = 0
KSM1 141405Z 26003KT 15/08 A3002 RMK A01 T01530081  RH  064%=      5-min Rain = 0
KSM1 141410Z 27003KT 15/08 A3002 RMK A01 T01540082  RH  064%=      5-min Rain = 0
KSM1 141415Z 27002KT 16/08 A3002 RMK A01 T01560082  RH  063%=      5-min Rain = 0
KSM1 141420Z 22003KT 16/08 A3003 RMK A01 T01580084  RH  063%=      5-min Rain = 0
KSM1 141425Z 21007KT 16/09 A3004 RMK A01 T01620086  RH  063%=      5-min Rain = 0
KSM1 141430Z 21006KT 17/09 A3004 RMK A01 T01670089  RH  062%=      5-min Rain = 0
KSM1 141435Z 22005KT 17/09 A3003 RMK A01 T01710091  RH  061%=      5-min Rain = 0
KSM1 141440Z 24006KT 17/09 A3004 RMK A01 T01740093  RH  061%=      5-min Rain = 0
KSM1 141445Z 23006KT 18/09 A3004 RMK A01 T01750094  RH  061%=      5-min Rain = 0
KSM1 141450Z 22004KT 18/10 A3004 RMK A01 T01770096  RH  061%=      5-min Rain = 0
KSM1 141455Z 21004KT 18/10 A3004 RMK A01 T01790097  RH  061%=      5-min Rain = 0
KSM1 141500Z 21005KT 18/10 A3004 RMK A01 T01800098  RH  061%=      5-min Rain = 0
KSM1 141505Z 21006KT 18/10 A3004 RMK A01 T01820099  RH  060%=      5-min Rain = 0
KSM1 141510Z 20006KT 18/10 A3004 RMK A01 T01840100  RH  060%=      5-min Rain = 0
KSM1 141515Z 20008KT 19/10 A3004 RMK A01 T01850101  RH  060%=      5-min Rain = 0
KSM1 141520Z 21008KT 19/10 A3005 RMK A01 T01870102  RH  060%=      5-min Rain = 0
KSM1 141525Z 20007KT 19/10 A3004 RMK A01 T01890104  RH  060%=      5-min Rain = 0
KSM1 141530Z 20008KT 19/11 A3004 RMK A01 T01910106  RH  060%=      5-min Rain = 0
KSM1 141535Z 21009KT 19/11 A3004 RMK A01 T01930107  RH  060%=      5-min Rain = 0
KSM1 141540Z 21008KT 20/11 A3004 RMK A01 T01950109  RH  060%=      5-min Rain = 0
KSM1 141545Z 22010KT 20/11 A3005 RMK A01 T01970111  RH  060%=      5-min Rain = 0
KSM1 141550Z 23009G14KT 20/11 A3005 RMK A01 T01980114  RH  060%=      5-min Rain = 0
KSM1 141555Z 23009G14KT 20/12 A3005 RMK A01 T02010116  RH  060%=      5-min Rain = 0
KSM1 141600Z 23010KT 20/12 A3005 RMK A01 T02030118  RH  060%=      5-min Rain = 0
KSM1 141605Z 23009KT 21/12 A3005 RMK A01 T02060119  RH  060%=      5-min Rain = 0
KSM1 141610Z 23009KT 21/12 A3005 RMK A01 T02070119  RH  059%=      5-min Rain = 0
KSM1 141615Z 22008KT 21/12 A3005 RMK A01 T02100120  RH  058%=      5-min Rain = 0
KSM1 141620Z 22009KT 21/12 A3004 RMK A01 T02130120  RH  057%=      5-min Rain = 0
KSM1 141625Z 22010KT 21/12 A3004 RMK A01 T02120120  RH  058%=      5-min Rain = 0
KSM1 141630Z 23011G16KT 22/12 A3005 RMK A01 T02150121  RH  057%=      5-min Rain = 0
KSM1 141635Z 22011G16KT 21/12 A3004 RMK A01 T02140121  RH  057%=      5-min Rain = 0
KSM1 141640Z 22009KT 22/12 A3004 RMK A01 T02150122  RH  057%=      5-min Rain = 0
KSM1 141645Z 22012KT 22/12 A3004 RMK A01 T02160122  RH  057%=      5-min Rain = 0
KSM1 141650Z 22011KT 22/12 A3004 RMK A01 T02160122  RH  057%=      5-min Rain = 0
KSM1 141655Z 23011G17KT 22/12 A3004 RMK A01 T02170122  RH  057%=      5-min Rain = 0
KSM1 141700Z 23012KT 22/12 A3004 RMK A01 T02180122  RH  056%=      5-min Rain = 0
KSM1 141705Z 22010KT 22/12 A3004 RMK A01 T02200123  RH  056%=      5-min Rain = 0
KSM1 141710Z 22011G16KT 22/12 A3004 RMK A01 T02230123  RH  055%=      5-min Rain = 0
KSM1 141715Z 22011KT 23/12 A3004 RMK A01 T02250124  RH  055%=      5-min Rain = 0
KSM1 141720Z 21011G17KT 23/12 A3003 RMK A01 T02280124  RH  054%=      5-min Rain = 0
KSM1 141725Z 23013KT 23/12 A3003 RMK A01 T02320124  RH  052%=      5-min Rain = 0
KSM1 141730Z 22013KT 23/12 A3003 RMK A01 T02340124  RH  052%=      5-min Rain = 0
KSM1 141735Z 24010G15KT 24/12 A3003 RMK A01 T02390124  RH  050%=      5-min Rain = 0
KSM1 141740Z 24012G17KT 24/12 A3002 RMK A01 T02410123  RH  050%=      5-min Rain = 0
KSM1 141745Z 24013G22KT 24/12 A3002 RMK A01 T02430122  RH  049%=      5-min Rain = 0
KSM1 141750Z 23010KT 25/12 A3002 RMK A01 T02460123  RH  048%=      5-min Rain = 0
KSM1 141755Z 20012G19KT 25/12 A3001 RMK A01 T02500121  RH  046%=      5-min Rain = 0
KSM1 141800Z 21012KT 25/12 A3001 RMK A01 T02520120  RH  045%=      5-min Rain = 0
KSM1 141805Z 22011KT 25/12 A30 RMK A01 T02520119  RH  045%=      5-min Rain = 0
KSM1 141810Z 23010KT 25/12 A30 RMK A01 T02520120  RH  046%=      5-min Rain = 0
KSM1 141815Z 20012G17KT 25/12 A30 RMK A01 T02530118  RH  044%=      5-min Rain = 0
KSM1 141820Z 20011G17KT 25/12 A30 RMK A01 T02530118  RH  044%=      5-min Rain = 0
KSM1 141825Z 21010G15KT 26/12 A30 RMK A01 T02580118  RH  043%=      5-min Rain = 0
KSM1 141830Z 21010KT 26/12 A2999 RMK A01 T02570116  RH  043%=      5-min Rain = 0
KSM1 141835Z 22009G16KT 26/12 A2999 RMK A01 T02570115  RH  043%=      5-min Rain = 0
KSM1 141840Z 23010G16KT 26/12 A2999 RMK A01 T02580117  RH  043%=      5-min Rain = 0
KSM1 141845Z 23011KT 26/12 A2999 RMK A01 T02590117  RH  043%=      5-min Rain = 0
KSM1 141850Z 21009G14KT 26/12 A2998 RMK A01 T02590119  RH  043%=      5-min Rain = 0
KSM1 141855Z 22009KT 26/12 A2998 RMK A01 T02590117  RH  043%=      5-min Rain = 0
KSM1 141900Z 21008KT 26/12 A2997 RMK A01 T02600120  RH  043%=      5-min Rain = 0
KSM1 141905Z 21009KT 26/12 A2997 RMK A01 T02640120  RH  042%=      5-min Rain = 0
KSM1 141910Z 22009G14KT 26/12 A2997 RMK A01 T02600119  RH  043%=      5-min Rain = 0
KSM1 141915Z 23010KT 26/12 A2997 RMK A01 T02570119  RH  044%=      5-min Rain = 0
KSM1 141920Z 22008KT 26/12 A2996 RMK A01 T02610120  RH  043%=      5-min Rain = 0
KSM1 141925Z 21009KT 27/12 A2996 RMK A01 T02710120  RH  041%=      5-min Rain = 0
KSM1 141930Z 22008G13KT 27/12 A2996 RMK A01 T02690118  RH  041%=      5-min Rain = 0
KSM1 141935Z 21007G12KT 26/12 A2995 RMK A01 T02640118  RH  042%=      5-min Rain = 0
KSM1 141940Z 20009KT 27/12 A2995 RMK A01 T02700120  RH  041%=      5-min Rain = 0
KSM1 141945Z 22008G13KT 27/12 A2995 RMK A01 T02710118  RH  040%=      5-min Rain = 0
KSM1 141950Z 22008G13KT 27/12 A2994 RMK A01 T02690116  RH  040%=      5-min Rain = 0
KSM1 141955Z 20009G14KT 27/12 A2994 RMK A01 T02680116  RH  040%=      5-min Rain = 0
KSM1 142000Z 20009G14KT 27/12 A2994 RMK A01 T02660116  RH  041%=      5-min Rain = 0
KSM1 142005Z 21009KT 27/12 A2994 RMK A01 T02680117  RH  040%=      5-min Rain = 0
KSM1 142010Z 23006KT 27/12 A2994 RMK A01 T02690118  RH  040%=      5-min Rain = 0
KSM1 142015Z 24006KT 27/12 A2994 RMK A01 T02720117  RH  039%=      5-min Rain = 0
KSM1 142020Z 26006KT 27/12 A2993 RMK A01 T02730118  RH  039%=      5-min Rain = 0
KSM1 142025Z 23008G15KT 28/12 A2993 RMK A01 T02750116  RH  039%=      5-min Rain = 0
KSM1 142030Z 23009KT 27/12 A2993 RMK A01 T02690117  RH  040%=      5-min Rain = 0
KSM1 142035Z 22008KT 26/12 A2993 RMK A01 T02630117  RH  042%=      5-min Rain = 0
KSM1 142040Z 22006KT 27/12 A2993 RMK A01 T02660116  RH  041%=      5-min Rain = 0
KSM1 142045Z 21009G14KT 27/12 A2993 RMK A01 T02680115  RH  040%=      5-min Rain = 0
KSM1 142050Z 20011KT 27/12 A2993 RMK A01 T02710115  RH  039%=      5-min Rain = 0
KSM1 142055Z 21010KT 27/12 A2993 RMK A01 T02730115  RH  039%=      5-min Rain = 0
KSM1 142100Z 20010KT 27/12 A2993 RMK A01 T02720117  RH  039%=      5-min Rain = 0
KSM1 142105Z 20010G15KT 27/12 A2993 RMK A01 T02710116  RH  039%=      5-min Rain = 0
KSM1 142110Z 19010KT 27/12 A2993 RMK A01 T02680116  RH  040%=      5-min Rain = 0
KSM1 142115Z 19010KT 27/12 A2992 RMK A01 T02670115  RH  040%=      5-min Rain = 0
KSM1 142120Z 20010KT 27/12 A2992 RMK A01 T02700116  RH  040%=      5-min Rain = 0
KSM1 142125Z 19009G14KT 27/12 A2992 RMK A01 T02670116  RH  040%=      5-min Rain = 0
KSM1 142130Z 20010G16KT 27/12 A2992 RMK A01 T02670117  RH  041%=      5-min Rain = 0
KSM1 142135Z 19012KT 27/12 A2992 RMK A01 T02700117  RH  040%=      5-min Rain = 0
KSM1 142140Z 20010KT 27/12 A2992 RMK A01 T02660118  RH  041%=      5-min Rain = 0
KSM1 142145Z 19010KT 27/12 A2992 RMK A01 T02670118  RH  041%=      5-min Rain = 0
KSM1 142150Z 21010G16KT 27/12 A2992 RMK A01 T02650120  RH  042%=      5-min Rain = 0
KSM1 142155Z 20011G17KT 26/12 A2992 RMK A01 T02630120  RH  043%=      5-min Rain = 0
KSM1 142200Z 19011KT 27/12 A2992 RMK A01 T02700122  RH  041%=      5-min Rain = 0
KSM1 142205Z 20010KT 27/12 A2992 RMK A01 T02740121  RH  040%=      5-min Rain = 0
KSM1 142210Z 20011G17KT 27/12 A2992 RMK A01 T02700120  RH  041%=      5-min Rain = 0
KSM1 142215Z 20012G17KT 27/12 A2992 RMK A01 T02700120  RH  041%=      5-min Rain = 0
KSM1 142220Z 19012KT 27/12 A2992 RMK A01 T02740120  RH  040%=      5-min Rain = 0
KSM1 142225Z 21010KT 27/12 A2992 RMK A01 T02700120  RH  041%=      5-min Rain = 0
KSM1 142230Z 23011G16KT 27/12 A2992 RMK A01 T02670116  RH  040%=      5-min Rain = 0
KSM1 142235Z 23009KT 27/12 A2992 RMK A01 T02680116  RH  040%=      5-min Rain = 0
KSM1 142240Z 23009KT 27/12 A2992 RMK A01 T02670119  RH  041%=      5-min Rain = 0
KSM1 142245Z 22010G15KT 27/12 A2992 RMK A01 T02680119  RH  041%=      5-min Rain = 0
KSM1 142250Z 22010KT 27/12 A2992 RMK A01 T02660118  RH  041%=      5-min Rain = 0
KSM1 142255Z 22009G14KT 27/12 A2992 RMK A01 T02650118  RH  041%=      5-min Rain = 0
KSM1 142300Z 22011KT 27/12 A2992 RMK A01 T02670116  RH  040%=      5-min Rain = 0
KSM1 142305Z 22010KT 27/12 A2992 RMK A01 T02660116  RH  041%=      5-min Rain = 0
KSM1 142310Z 23009G14KT 27/11 A2992 RMK A01 T02660114  RH  040%=      5-min Rain = 0
KSM1 142315Z 22011KT 27/11 A2992 RMK A01 T02650111  RH  040%=      5-min Rain = 0
KSM1 142320Z 23008KT 26/11 A2992 RMK A01 T02640111  RH  040%=      5-min Rain = 0
KSM1 142325Z 23009KT 26/11 A2992 RMK A01 T02630112  RH  040%=      5-min Rain = 0
KSM1 142330Z 23009KT 26/11 A2992 RMK A01 T02620105  RH  038%=      5-min Rain = 0
KSM1 142335Z 24008KT 26/10 A2992 RMK A01 T02620096  RH  036%=      5-min Rain = 0
KSM1 142340Z 25009KT 26/09 A2992 RMK A01 T02610091  RH  035%=      5-min Rain = 0
KSM1 142345Z 24008KT 26/09 A2992 RMK A01 T02600089  RH  035%=      5-min Rain = 0
KSM1 142350Z 23007KT 26/09 A2992 RMK A01 T02590090  RH  035%=      5-min Rain = 0
KSM1 142355Z 24007KT 26/09 A2992 RMK A01 T02570086  RH  035%=      5-min Rain = 0
KSM1 150000Z 24006KT 26/09 A2993 RMK A01 T02550086  RH  035%=      5-min Rain = 0
KSM1 150005Z 24007KT 25/08 A2993 RMK A01 T02520082  RH  035%=      5-min Rain = 0
KSM1 150010Z 24007KT 25/08 A2993 RMK A01 T02500079  RH  035%=      5-min Rain = 0
KSM1 150015Z 24007KT 25/08 A2993 RMK A01 T02460077  RH  035%=      5-min Rain = 0
KSM1 150020Z 24008KT 24/08 A2993 RMK A01 T02440075  RH  035%=      5-min Rain = 0
KSM1 150025Z 24008KT 24/08 A2993 RMK A01 T02420075  RH  035%=      5-min Rain = 0
KSM1 150030Z 24007KT 24/08 A2993 RMK A01 T02380077  RH  036%=      5-min Rain = 0
KSM1 150035Z 24007KT 24/08 A2994 RMK A01 T02360078  RH  037%=      5-min Rain = 0
KSM1 150040Z 23006KT 23/08 A2993 RMK A01 T02340080  RH  038%=      5-min Rain = 0
KSM1 150045Z 23005KT 23/08 A2993 RMK A01 T02330082  RH  039%=      5-min Rain = 0
KSM1 150050Z 24006KT 23/08 A2994 RMK A01 T02330082  RH  039%=      5-min Rain = 0
KSM1 150055Z 24006KT 23/08 A2994 RMK A01 T02320083  RH  040%=      5-min Rain = 0
KSM1 150100Z 24005KT 23/09 A2994 RMK A01 T02280085  RH  041%=      5-min Rain = 0
KSM1 150105Z 24005KT 22/09 A2994 RMK A01 T02240085  RH  042%=      5-min Rain = 0
KSM1 150110Z 24004KT 22/09 A2994 RMK A01 T02210086  RH  043%=      5-min Rain = 0
KSM1 150115Z 23004KT 22/09 A2994 RMK A01 T02190087  RH  044%=      5-min Rain = 0
KSM1 150120Z 23004KT 22/09 A2995 RMK A01 T02180086  RH  044%=      5-min Rain = 0
KSM1 150125Z 23004KT 22/09 A2995 RMK A01 T02170087  RH  045%=      5-min Rain = 0
KSM1 150130Z 23004KT 22/09 A2995 RMK A01 T02170088  RH  045%=      5-min Rain = 0
KSM1 150135Z 23004KT 22/09 A2995 RMK A01 T02160088  RH  045%=      5-min Rain = 0
KSM1 150140Z 23004KT 22/09 A2995 RMK A01 T02150089  RH  046%=      5-min Rain = 0
KSM1 150145Z 23004KT 22/09 A2995 RMK A01 T02150090  RH  046%=      5-min Rain = 0
KSM1 150150Z 22005KT 21/09 A2995 RMK A01 T02120090  RH  047%=      5-min Rain = 0
KSM1 150155Z 22006KT 21/09 A2995 RMK A01 T02090091  RH  048%=      5-min Rain = 0
KSM1 150200Z 23005KT 21/09 A2995 RMK A01 T02100092  RH  048%=      5-min Rain = 0
KSM1 150205Z 22006KT 21/09 A2996 RMK A01 T02100093  RH  048%=      5-min Rain = 0
KSM1 150210Z 22006KT 21/09 A2996 RMK A01 T02120093  RH  048%=      5-min Rain = 0
KSM1 150215Z 22006KT 21/09 A2996 RMK A01 T02130093  RH  048%=      5-min Rain = 0
KSM1 150220Z 22006KT 21/09 A2996 RMK A01 T02130093  RH  048%=      5-min Rain = 0
KSM1 150225Z 22006KT 21/09 A2996 RMK A01 T02110094  RH  048%=      5-min Rain = 0
KSM1 150230Z 22007KT 21/10 A2996 RMK A01 T02110096  RH  049%=      5-min Rain = 0
KSM1 150235Z 22008KT 21/10 A2996 RMK A01 T02130100  RH  050%=      5-min Rain = 0
KSM1 150240Z 22008KT 22/10 A2997 RMK A01 T02150104  RH  051%=      5-min Rain = 0
KSM1 150245Z 22008KT 21/11 A2997 RMK A01 T02140106  RH  052%=      5-min Rain = 0
KSM1 150250Z 22008KT 21/11 A2997 RMK A01 T02140108  RH  053%=      5-min Rain = 0
KSM1 150255Z 22008KT 21/11 A2997 RMK A01 T02140110  RH  054%=      5-min Rain = 0
KSM1 150300Z 22008KT 21/11 A2997 RMK A01 T02130112  RH  054%=      5-min Rain = 0
KSM1 150305Z 21007KT 21/11 A2997 RMK A01 T02130113  RH  055%=      5-min Rain = 0
KSM1 150310Z 22008KT 21/11 A2997 RMK A01 T02120114  RH  056%=      5-min Rain = 0
KSM1 150315Z 22008KT 21/11 A2997 RMK A01 T02110114  RH  056%=      5-min Rain = 0
KSM1 150320Z 22008KT 21/12 A2997 RMK A01 T02090115  RH  057%=      5-min Rain = 0
KSM1 150325Z 22009KT 21/12 A2997 RMK A01 T02070115  RH  058%=      5-min Rain = 0
KSM1 150330Z 22009KT 21/12 A2998 RMK A01 T02060116  RH  058%=      5-min Rain = 0
KSM1 150335Z 22009KT 21/12 A2998 RMK A01 T02060117  RH  059%=      5-min Rain = 0
KSM1 150340Z 21009KT 21/12 A2998 RMK A01 T02060118  RH  059%=      5-min Rain = 0
KSM1 150345Z 19009KT 20/12 A2998 RMK A01 T02040116  RH  059%=      5-min Rain = 0
KSM1 150350Z 21009KT 20/12 A2998 RMK A01 T02000118  RH  061%=      5-min Rain = 0
KSM1 150355Z 19008KT 20/12 A2998 RMK A01 T02000118  RH  061%=      5-min Rain = 0
KSM1 150400Z 21010KT 20/12 A2998 RMK A01 T01990118  RH  062%=      5-min Rain = 0
KSM1 150405Z 21011KT 20/12 A2998 RMK A01 T02020120  RH  061%=      5-min Rain = 0
KSM1 150410Z 21010KT 20/12 A2998 RMK A01 T02030120  RH  061%=      5-min Rain = 0
KSM1 150415Z 21011KT 20/12 A2998 RMK A01 T02010121  RH  062%=      5-min Rain = 0
KSM1 150420Z 20010KT 20/12 A2998 RMK A01 T02010123  RH  063%=      5-min Rain = 0
KSM1 150425Z 21011KT 20/12 A2998 RMK A01 T02000124  RH  064%=      5-min Rain = 0
KSM1 150430Z 21010KT 20/13 A2998 RMK A01 T02010125  RH  064%=      5-min Rain = 0
KSM1 150435Z 21010KT 20/13 A2998 RMK A01 T02000126  RH  065%=      5-min Rain = 0
KSM1 150440Z 21010KT 20/13 A2998 RMK A01 T01990127  RH  066%=      5-min Rain = 0
KSM1 150445Z 21011KT 20/13 A2998 RMK A01 T01990128  RH  066%=      5-min Rain = 0
KSM1 150450Z 21010KT 20/13 A2998 RMK A01 T01980128  RH  067%=      5-min Rain = 0
KSM1 150455Z 21009KT 20/13 A2998 RMK A01 T01960128  RH  068%=      5-min Rain = 0

Page generated in 0.0094 seconds.